createdAt,value
2023-04-18T00:00:24.248Z,96486.06
2023-04-18T00:02:53.979Z,96486.63
2023-04-18T00:05:22.375Z,96483.94
2023-04-18T00:07:51.354Z,96482.28
2023-04-18T00:10:19.268Z,96482.28
2023-04-18T00:12:47.182Z,96471.72
2023-04-18T00:15:14.993Z,96470.75
2023-04-18T00:17:44.195Z,96460.88
2023-04-18T00:20:12.777Z,96462.16
2023-04-18T00:22:42.614Z,96464.84
2023-04-18T00:25:12.016Z,96454.88
2023-04-18T00:27:40.183Z,96460.47
2023-04-18T00:30:09.648Z,96459.16
2023-04-18T00:32:38.744Z,96468.03
2023-04-18T00:35:08.708Z,96469.66
2023-04-18T00:37:37.174Z,96469.13
2023-04-18T00:40:05.853Z,96460.78
2023-04-18T00:42:34.096Z,96465.97
2023-04-18T00:45:02.153Z,96457.88
2023-04-18T00:47:29.939Z,96456.78
2023-04-18T00:49:57.905Z,96465.97
2023-04-18T00:52:28.073Z,96462.16
2023-04-18T00:54:56.664Z,96451.88
2023-04-18T00:57:24.547Z,96454.06
2023-04-18T00:59:53.077Z,96467.56
2023-04-18T01:02:20.902Z,96460.75
2023-04-18T01:04:48.808Z,96463.34
2023-04-18T01:07:16.757Z,96458.22
2023-04-18T01:09:46.120Z,96445.78
2023-04-18T01:12:13.944Z,96445.84
2023-04-18T01:14:42.624Z,96449.34
2023-04-18T01:17:11.043Z,96446.75
2023-04-18T01:19:39.341Z,96445.78
2023-04-18T01:22:08.286Z,96441.81
2023-04-18T01:24:37.440Z,96441.19
2023-04-18T01:27:05.895Z,96442.28
2023-04-18T01:29:35.257Z,96439.91
2023-04-18T01:32:03.658Z,96439.09
2023-04-18T01:34:31.398Z,96441.28
2023-04-18T01:36:59.232Z,96431.28
2023-04-18T01:39:27.062Z,96442.50
2023-04-18T01:41:56.281Z,96444.50
2023-04-18T01:44:24.129Z,96437.22
2023-04-18T01:46:51.947Z,96425.91
2023-04-18T01:49:19.799Z,96434.59
2023-04-18T01:51:49.874Z,96434.06
2023-04-18T01:54:17.700Z,96436.50
2023-04-18T01:56:45.825Z,96433.19
2023-04-18T01:59:15.097Z,96430.28
2023-04-18T02:01:43.453Z,96430.88
2023-04-18T02:04:11.628Z,96444.28
2023-04-18T02:06:39.590Z,96426.88
2023-04-18T02:09:07.314Z,96443.34
2023-04-18T02:11:35.066Z,96428.63
2023-04-18T02:14:04.161Z,96433.44
2023-04-18T02:16:34.050Z,96441.75
2023-04-18T02:19:04.362Z,96436.72
2023-04-18T02:21:32.194Z,96440.22
2023-04-18T02:24:00.032Z,96437.47
2023-04-18T02:26:27.822Z,96429.38
2023-04-18T02:28:58.989Z,96434.03
2023-04-18T02:31:27.028Z,96439.22
2023-04-18T02:33:56.372Z,96439.22
2023-04-18T02:36:26.062Z,96448.81
2023-04-18T02:38:53.830Z,96445.09
2023-04-18T02:41:21.871Z,96442.97
2023-04-18T02:43:49.767Z,96441.69
2023-04-18T02:46:19.475Z,96446.13
2023-04-18T02:48:49.284Z,96452.53
2023-04-18T02:51:20.508Z,96442.91
2023-04-18T02:53:48.792Z,96445.84
2023-04-18T02:56:18.025Z,96446.63
2023-04-18T02:59:24.017Z,96453.69
2023-04-18T03:02:10.515Z,96446.94
2023-04-18T03:04:44.004Z,96451.44
2023-04-18T03:07:13.339Z,96451.13
2023-04-18T03:09:42.348Z,96447.66
2023-04-18T03:12:24.099Z,96450.91
2023-04-18T03:14:52.498Z,96443.44
2023-04-18T03:17:21.410Z,96440.81
2023-04-18T03:19:50.430Z,96433.81
2023-04-18T03:22:22.019Z,96433.88
2023-04-18T03:25:00.977Z,96443.00
2023-04-18T03:27:42.850Z,96438.78
2023-04-18T03:30:12.427Z,96443.59
2023-04-18T03:32:43.018Z,96439.88
2023-04-18T03:35:11.062Z,96431.00
2023-04-18T03:37:40.629Z,96435.50
2023-04-18T03:40:10.841Z,96438.19
2023-04-18T03:42:38.679Z,96436.56
2023-04-18T03:45:07.327Z,96434.50
2023-04-18T03:47:37.885Z,96437.97
2023-04-18T03:50:06.938Z,96435.34
2023-04-18T03:52:35.344Z,96430.31
2023-04-18T03:55:07.843Z,96438.31
2023-04-18T03:57:35.856Z,96437.31
2023-04-18T04:00:08.541Z,96438.38
2023-04-18T04:02:43.478Z,96441.88
2023-04-18T04:05:17.945Z,96443.84
2023-04-18T04:07:46.128Z,96440.66
2023-04-18T04:10:15.422Z,96439.56
2023-04-18T04:12:43.355Z,96449.22
2023-04-18T04:15:12.826Z,96446.81
2023-04-18T04:17:47.234Z,96450.81
2023-04-18T04:20:17.061Z,96448.66
2023-04-18T04:22:44.918Z,96449.16
2023-04-18T04:25:13.830Z,96451.34
2023-04-18T04:27:44.778Z,96459.41
2023-04-18T04:30:14.857Z,96449.69
2023-04-18T04:32:44.600Z,96456.16
2023-04-18T04:35:12.491Z,96456.19
2023-04-18T04:37:41.161Z,96447.84
2023-04-18T04:40:19.219Z,96451.84
2023-04-18T04:42:56.117Z,96454.13
2023-04-18T04:45:31.132Z,96453.31
2023-04-18T04:47:58.991Z,96448.44
2023-04-18T04:50:26.811Z,96456.75
2023-04-18T04:52:54.666Z,96444.38
2023-04-18T04:55:22.572Z,96454.06
